Meeteetse, Wyoming
Current Conditions -  °F | °C
As of 4:55 PM on Saturday 25 Oct 2014 (Local Time) from KCOD Reporting Station
Clear Clear  
Wind Chill: 75°   Ceiling: Unl
Heat Index: 75°   Visibility: 10mi
Dew Point: 27°   Wind: 12mph
Humidity: 17%   Direction: 140°SE
Pressure: 29.84"   Gusts: NA
Location:  44.16°N, 108.87°W
Report Text: KCOD 252255Z 14010KT 10SM CLR 24/M03 A2984 RMK AO1
Loading
Personal Weather Stations






























Interactive Weather Map
Tropical Storm Tracking
New forecast layout! Learn more

10-Day Weather Forecast

Advertisements
Track Severe Weather on mobile